createdAt,value
2022-12-06T00:01:48.397Z,10.20
2022-12-06T00:04:16.566Z,11.48
2022-12-06T00:06:48.098Z,8.57
2022-12-06T00:09:21.418Z,9.20
2022-12-06T00:11:48.389Z,8.25
2022-12-06T00:14:15.232Z,8.32
2022-12-06T00:16:41.881Z,7.65
2022-12-06T00:19:12.370Z,13.13
2022-12-06T00:21:39.707Z,9.65
2022-12-06T00:24:20.776Z,6.30
2022-12-06T00:26:48.687Z,7.80
2022-12-06T00:29:21.520Z,7.35
2022-12-06T00:31:49.265Z,8.00
2022-12-06T00:34:16.437Z,9.50
2022-12-06T00:36:43.564Z,7.03
2022-12-06T00:39:12.987Z,10.15
2022-12-06T00:41:40.519Z,9.45
2022-12-06T00:44:07.496Z,9.18
2022-12-06T00:46:35.183Z,10.93
2022-12-06T00:49:03.788Z,13.10
2022-12-06T00:51:32.154Z,8.40
2022-12-06T00:53:59.214Z,9.60
2022-12-06T00:56:26.331Z,6.27
2022-12-06T00:58:53.313Z,8.30
2022-12-06T01:01:28.059Z,10.95
2022-12-06T01:03:57.322Z,10.10
2022-12-06T01:06:28.107Z,8.68
2022-12-06T01:08:56.547Z,9.93
2022-12-06T01:11:24.170Z,7.20
2022-12-06T01:13:51.900Z,7.32
2022-12-06T01:16:24.427Z,8.45
2022-12-06T01:18:59.593Z,7.07
2022-12-06T01:21:26.717Z,8.53
2022-12-06T01:23:56.541Z,6.40
2022-12-06T01:26:26.034Z,6.38
2022-12-06T01:28:53.543Z,11.93
2022-12-06T01:31:20.919Z,7.88
2022-12-06T01:33:47.610Z,10.35
2022-12-06T01:36:18.611Z,8.57
2022-12-06T01:38:50.295Z,9.05
2022-12-06T01:41:17.046Z,11.27
2022-12-06T01:43:44.443Z,7.55
2022-12-06T01:46:18.243Z,8.60
2022-12-06T01:48:45.501Z,6.63
2022-12-06T01:51:14.665Z,8.77
2022-12-06T01:53:45.495Z,8.68
2022-12-06T01:56:12.906Z,8.63
2022-12-06T01:58:41.715Z,10.68
2022-12-06T02:01:09.711Z,9.48
2022-12-06T02:03:38.178Z,8.10
2022-12-06T02:06:07.363Z,7.22
2022-12-06T02:08:35.706Z,8.77
2022-12-06T02:11:03.387Z,11.00
2022-12-06T02:13:32.538Z,7.05
2022-12-06T02:16:32.947Z,7.43
2022-12-06T02:19:27.277Z,8.33
2022-12-06T02:22:17.605Z,8.57
2022-12-06T02:25:21.795Z,7.43
2022-12-06T02:27:48.312Z,7.93
2022-12-06T02:30:18.905Z,9.85
2022-12-06T02:32:59.936Z,8.70
2022-12-06T02:35:40.881Z,8.15
2022-12-06T02:38:13.501Z,9.45
2022-12-06T02:40:47.032Z,8.75
2022-12-06T02:43:20.823Z,9.85
2022-12-06T02:45:54.226Z,10.23
2022-12-06T02:48:23.520Z,11.95
2022-12-06T02:50:56.435Z,7.45
2022-12-06T02:53:25.932Z,8.95
2022-12-06T02:55:53.248Z,10.20
2022-12-06T02:58:19.820Z,7.85
2022-12-06T03:00:50.832Z,10.80
2022-12-06T03:03:26.127Z,7.38
2022-12-06T03:06:01.984Z,8.57
2022-12-06T03:08:53.287Z,13.13
2022-12-06T03:13:59.808Z,11.85
2022-12-06T03:16:28.317Z,9.80
2022-12-06T03:19:13.341Z,10.50
2022-12-06T03:21:46.611Z,10.53
2022-12-06T03:24:15.735Z,8.47
2022-12-06T03:26:45.709Z,9.98
2022-12-06T03:29:15.353Z,8.93
2022-12-06T03:31:42.210Z,11.13
2022-12-06T03:34:20.986Z,9.17
2022-12-06T03:36:50.110Z,9.93
2022-12-06T03:39:24.598Z,8.63
2022-12-06T03:41:57.734Z,9.83
2022-12-06T03:44:25.533Z,13.97
2022-12-06T03:47:16.056Z,12.10
2022-12-06T03:49:56.999Z,7.78
2022-12-06T03:52:25.184Z,13.38
2022-12-06T03:54:51.786Z,9.87
2022-12-06T03:57:18.526Z,10.97
2022-12-06T03:59:46.243Z,11.83
2022-12-06T04:02:12.906Z,9.77
2022-12-06T04:04:40.567Z,12.07
2022-12-06T04:07:07.236Z,11.83
2022-12-06T04:09:52.348Z,9.53
2022-12-06T04:12:37.974Z,9.70
2022-12-06T04:15:06.405Z,10.53
2022-12-06T04:17:51.512Z,20.00
2022-12-06T04:20:18.260Z,11.17
2022-12-06T04:23:03.459Z,10.60
2022-12-06T04:25:36.749Z,12.48
2022-12-06T04:28:22.603Z,10.73
2022-12-06T04:31:08.162Z,10.40
2022-12-06T04:33:53.435Z,12.63
2022-12-06T04:36:38.536Z,11.18
2022-12-06T04:39:05.578Z,10.13
2022-12-06T04:41:50.871Z,11.95
2022-12-06T04:44:17.657Z,10.67
2022-12-06T04:46:44.412Z,12.27
2022-12-06T04:49:11.047Z,7.80
2022-12-06T04:51:37.626Z,10.23
2022-12-06T04:54:05.453Z,12.53
2022-12-06T04:56:32.022Z,13.33
2022-12-06T04:58:58.556Z,9.70
2022-12-06T05:01:25.158Z,9.70
2022-12-06T05:03:52.631Z,12.25
2022-12-06T05:06:19.165Z,10.55
2022-12-06T05:08:45.742Z,9.67
2022-12-06T05:11:12.626Z,8.73
2022-12-06T05:13:39.127Z,11.87
2022-12-06T05:16:07.248Z,11.10
2022-12-06T05:18:34.499Z,9.63
2022-12-06T05:21:02.282Z,11.65
2022-12-06T05:23:29.093Z,10.57
2022-12-06T05:26:00.299Z,14.57
2022-12-06T05:30:54.142Z,16.10
2022-12-06T05:33:21.096Z,15.00
2022-12-06T05:35:47.614Z,8.33
2022-12-06T05:38:14.211Z,10.77
2022-12-06T05:40:41.883Z,11.13
2022-12-06T05:43:08.434Z,9.27
2022-12-06T05:45:37.039Z,9.48
2022-12-06T05:48:04.216Z,7.67
2022-12-06T05:50:31.082Z,11.57
2022-12-06T05:52:59.359Z,11.33
2022-12-06T05:55:26.769Z,10.40
2022-12-06T05:57:54.612Z,10.88
2022-12-06T06:00:21.647Z,15.07
2022-12-06T06:02:48.328Z,14.17
2022-12-06T06:05:14.997Z,16.27
2022-12-06T06:07:41.634Z,15.50
2022-12-06T06:10:08.494Z,11.07
2022-12-06T06:12:35.022Z,12.23
2022-12-06T06:15:01.622Z,13.15
2022-12-06T06:17:28.353Z,11.03
2022-12-06T06:19:54.903Z,10.27
2022-12-06T06:22:23.101Z,9.55
2022-12-06T06:24:49.654Z,15.97
2022-12-06T06:27:16.146Z,11.40
2022-12-06T06:29:45.535Z,10.10
2022-12-06T06:32:13.767Z,10.80
2022-12-06T06:34:40.416Z,11.40
2022-12-06T06:37:06.984Z,6.93
2022-12-06T06:39:33.590Z,9.17
2022-12-06T06:42:00.099Z,11.88
2022-12-06T06:44:26.610Z,8.93
2022-12-06T06:46:53.170Z,8.75
2022-12-06T06:49:19.777Z,9.02
2022-12-06T06:51:46.506Z,11.65
2022-12-06T06:54:13.123Z,11.55
2022-12-06T06:56:39.691Z,9.18
2022-12-06T06:59:06.524Z,9.70
2022-12-06T07:01:33.329Z,11.15
2022-12-06T07:04:00.054Z,10.57
2022-12-06T07:06:26.592Z,12.53
2022-12-06T07:08:53.155Z,15.02
2022-12-06T07:11:19.944Z,12.27
2022-12-06T07:13:51.246Z,9.43
2022-12-06T07:16:19.529Z,10.97
2022-12-06T07:18:47.603Z,9.80
2022-12-06T07:21:16.137Z,9.57
2022-12-06T07:23:43.235Z,8.77
2022-12-06T07:26:15.597Z,10.25
2022-12-06T07:28:44.105Z,9.70
2022-12-06T07:31:16.321Z,10.10
2022-12-06T07:33:43.559Z,8.85
2022-12-06T07:36:13.422Z,10.48
2022-12-06T07:38:42.669Z,8.07
2022-12-06T07:41:31.470Z,10.57
2022-12-06T07:44:19.347Z,8.68
2022-12-06T07:46:46.679Z,10.23
2022-12-06T07:49:15.766Z,10.23
2022-12-06T07:51:43.891Z,8.15
2022-12-06T07:54:10.483Z,9.52
2022-12-06T07:56:37.681Z,8.63
2022-12-06T07:59:04.275Z,13.17
2022-12-06T08:01:31.276Z,10.00
2022-12-06T08:04:02.795Z,9.38
2022-12-06T08:06:31.368Z,9.23
2022-12-06T08:09:01.001Z,8.93
2022-12-06T08:11:28.740Z,9.80
2022-12-06T08:13:55.685Z,8.50
2022-12-06T08:16:22.325Z,11.43
2022-12-06T08:18:48.961Z,10.63
2022-12-06T08:21:16.585Z,14.00
2022-12-06T08:23:43.126Z,13.00
2022-12-06T08:26:13.320Z,12.13
2022-12-06T08:28:40.693Z,10.90
2022-12-06T08:31:13.336Z,14.25
2022-12-06T08:33:40.412Z,10.10
2022-12-06T08:36:09.063Z,13.25
2022-12-06T08:38:37.544Z,10.35
2022-12-06T08:41:05.404Z,10.80
2022-12-06T08:43:32.382Z,14.70
2022-12-06T08:45:59.043Z,14.35
2022-12-06T08:48:26.977Z,17.33
2022-12-06T08:50:53.576Z,13.98
2022-12-06T08:53:20.112Z,12.68
2022-12-06T08:56:00.415Z,14.57
2022-12-06T08:58:29.065Z,21.45
2022-12-06T09:00:55.762Z,19.50
2022-12-06T09:03:22.387Z,24.80
2022-12-06T09:05:48.934Z,14.52
2022-12-06T09:08:15.576Z,11.25
2022-12-06T09:10:43.870Z,10.23
2022-12-06T09:13:10.425Z,12.32
2022-12-06T09:15:38.588Z,23.15
2022-12-06T09:18:05.261Z,10.57
2022-12-06T09:20:31.905Z,13.35
2022-12-06T09:22:58.459Z,13.30
2022-12-06T09:25:25.278Z,15.63
2022-12-06T09:27:53.023Z,13.90
2022-12-06T09:30:19.672Z,18.48
2022-12-06T09:32:48.261Z,18.77
2022-12-06T09:35:15.949Z,12.90
2022-12-06T09:37:44.224Z,16.83
2022-12-06T09:40:41.247Z,10.63
2022-12-06T09:43:40.734Z,11.32
2022-12-06T09:46:31.663Z,11.48
2022-12-06T09:49:16.312Z,18.63
2022-12-06T09:51:53.491Z,8.70
2022-12-06T09:54:38.959Z,12.52
2022-12-06T09:57:18.478Z,11.05
2022-12-06T09:59:51.356Z,8.30
2022-12-06T10:02:36.726Z,12.93
2022-12-06T10:05:24.417Z,9.93
2022-12-06T10:08:38.447Z,9.52
2022-12-06T10:11:33.758Z,14.52
2022-12-06T10:14:12.719Z,13.25
2022-12-06T10:17:08.726Z,10.00
2022-12-06T10:19:42.103Z,11.45
2022-12-06T10:22:28.495Z,9.55
2022-12-06T10:25:11.067Z,9.45
2022-12-06T10:27:48.261Z,15.10
2022-12-06T10:30:16.864Z,11.40
2022-12-06T10:33:14.995Z,10.57
2022-12-06T10:35:59.945Z,14.85
2022-12-06T10:38:47.996Z,18.08
2022-12-06T10:41:30.810Z,11.27
2022-12-06T10:44:15.699Z,11.65
2022-12-06T10:47:04.433Z,13.63
2022-12-06T10:49:41.128Z,15.07
2022-12-06T10:52:29.563Z,12.00
2022-12-06T10:54:59.109Z,11.32
2022-12-06T10:57:51.202Z,13.95
2022-12-06T11:00:18.400Z,16.42
2022-12-06T11:03:04.483Z,11.27
2022-12-06T11:05:37.325Z,11.20
2022-12-06T11:08:10.704Z,12.25
2022-12-06T11:10:39.126Z,18.20
2022-12-06T11:13:37.742Z,12.73
2022-12-06T11:16:11.095Z,12.40
2022-12-06T11:18:38.494Z,11.15
2022-12-06T11:21:11.056Z,11.02
2022-12-06T11:24:14.005Z,12.30
2022-12-06T11:26:46.574Z,11.85
2022-12-06T11:29:15.912Z,13.15
2022-12-06T11:31:46.886Z,13.50
2022-12-06T11:34:38.379Z,14.38
2022-12-06T11:37:06.445Z,13.80
2022-12-06T11:39:34.052Z,14.73
2022-12-06T11:42:03.697Z,11.00
2022-12-06T11:44:42.494Z,15.95
2022-12-06T11:47:19.099Z,13.05
2022-12-06T11:49:47.027Z,15.65
2022-12-06T11:52:35.491Z,13.75
2022-12-06T11:55:24.173Z,13.27
2022-12-06T11:58:03.760Z,14.45
2022-12-06T12:00:31.345Z,10.65
2022-12-06T12:02:58.602Z,10.40
2022-12-06T12:05:25.518Z,13.65
2022-12-06T12:08:02.206Z,14.52
2022-12-06T12:10:42.658Z,9.85
2022-12-06T12:13:30.640Z,10.60
2022-12-06T12:16:01.484Z,13.85
2022-12-06T12:18:40.971Z,12.77
2022-12-06T12:21:07.794Z,11.55
2022-12-06T12:23:43.245Z,16.35
2022-12-06T12:26:18.134Z,11.85
2022-12-06T12:29:01.419Z,10.07
2022-12-06T12:31:28.021Z,33.22
2022-12-06T12:34:27.698Z,11.38
2022-12-06T12:36:58.548Z,12.00
2022-12-06T12:39:35.255Z,10.88
2022-12-06T12:42:02.389Z,10.93
2022-12-06T12:44:38.053Z,14.43
2022-12-06T12:47:19.922Z,13.07
2022-12-06T12:50:20.146Z,10.90
2022-12-06T12:52:47.310Z,12.27
2022-12-06T12:55:29.069Z,11.80
2022-12-06T12:57:58.963Z,13.63
2022-12-06T13:00:37.550Z,15.90
2022-12-06T13:03:34.440Z,12.65
2022-12-06T13:05:57.473Z,11.23
2022-12-06T13:08:29.073Z,12.00
2022-12-06T13:10:59.452Z,12.73
2022-12-06T13:13:35.175Z,13.23
2022-12-06T13:16:10.151Z,14.68
2022-12-06T13:18:54.370Z,10.23
2022-12-06T13:21:27.835Z,10.93
2022-12-06T13:24:07.708Z,12.85
2022-12-06T13:26:56.134Z,14.10
2022-12-06T13:29:22.617Z,12.77
2022-12-06T13:31:52.520Z,15.02
2022-12-06T13:34:38.051Z,11.48
2022-12-06T13:37:28.960Z,13.48
2022-12-06T13:39:56.976Z,12.05
2022-12-06T13:42:42.291Z,14.23
2022-12-06T13:45:45.591Z,13.25
2022-12-06T13:48:24.654Z,13.27
2022-12-06T13:50:55.815Z,14.52
2022-12-06T13:55:59.078Z,13.15
2022-12-06T13:58:27.233Z,14.88
2022-12-06T14:00:55.373Z,14.82
2022-12-06T14:03:23.425Z,11.43
2022-12-06T14:06:09.125Z,12.88
2022-12-06T14:08:53.690Z,13.95
2022-12-06T14:11:26.365Z,13.32
2022-12-06T14:13:55.849Z,12.55
2022-12-06T14:16:40.405Z,13.02
2022-12-06T14:19:21.002Z,12.32
2022-12-06T14:22:04.557Z,13.48
2022-12-06T14:24:35.639Z,10.38
2022-12-06T14:27:06.915Z,13.02
2022-12-06T14:29:33.969Z,13.32
2022-12-06T14:32:00.475Z,16.38
2022-12-06T14:34:29.726Z,12.52
2022-12-06T14:36:57.881Z,10.10
2022-12-06T14:39:28.057Z,12.88
2022-12-06T14:42:19.323Z,11.80
2022-12-06T14:45:00.356Z,18.75
2022-12-06T14:47:28.999Z,11.43
2022-12-06T14:50:17.800Z,11.32
2022-12-06T14:53:12.823Z,11.52
2022-12-06T14:55:57.647Z,10.77
2022-12-06T14:58:27.845Z,14.52
2022-12-06T15:00:55.790Z,11.57
2022-12-06T15:03:25.668Z,13.50
2022-12-06T15:06:17.164Z,9.45
2022-12-06T15:09:03.891Z,14.10
2022-12-06T15:11:49.040Z,11.43
2022-12-06T15:14:19.210Z,14.00
2022-12-06T15:16:58.871Z,15.83
2022-12-06T15:19:26.173Z,15.32
2022-12-06T15:21:53.466Z,14.32
2022-12-06T15:24:26.085Z,13.82
2022-12-06T15:26:53.486Z,12.48
2022-12-06T15:29:20.555Z,11.57
2022-12-06T15:31:58.164Z,14.50
2022-12-06T15:34:30.346Z,14.85
2022-12-06T15:37:30.181Z,15.38
2022-12-06T15:39:45.508Z,11.77
2022-12-06T15:42:20.042Z,14.18
2022-12-06T15:44:49.860Z,13.93
2022-12-06T15:47:18.362Z,14.65
2022-12-06T15:49:45.602Z,21.70
2022-12-06T15:52:17.150Z,15.30
2022-12-06T15:54:44.013Z,13.98
2022-12-06T15:57:10.698Z,14.13
2022-12-06T15:59:37.339Z,14.88
2022-12-06T16:02:04.016Z,17.60
2022-12-06T16:04:32.603Z,20.80
2022-12-06T16:06:59.171Z,27.05
2022-12-06T16:09:25.722Z,40.70
2022-12-06T16:11:52.330Z,25.58
2022-12-06T16:14:18.873Z,20.45
2022-12-06T16:16:45.975Z,17.52
2022-12-06T16:19:12.722Z,20.70
2022-12-06T16:21:54.736Z,17.95
2022-12-06T16:24:21.582Z,15.07
2022-12-06T16:26:48.359Z,14.90
2022-12-06T16:29:25.872Z,18.35
2022-12-06T16:31:53.095Z,20.25
2022-12-06T16:34:20.430Z,14.43
2022-12-06T16:36:57.375Z,19.60
2022-12-06T16:39:24.385Z,22.45
2022-12-06T16:41:51.066Z,16.92
2022-12-06T16:44:17.639Z,13.27
2022-12-06T16:46:45.719Z,14.55
2022-12-06T16:49:45.093Z,27.92
2022-12-06T16:52:06.484Z,24.52
2022-12-06T16:54:33.450Z,26.83
2022-12-06T16:57:00.036Z,16.73
2022-12-06T16:59:26.589Z,19.15
2022-12-06T17:01:55.186Z,32.03
2022-12-06T17:04:22.520Z,26.95
2022-12-06T17:06:49.334Z,25.00
2022-12-06T17:09:16.334Z,24.63
2022-12-06T17:12:02.055Z,13.80
2022-12-06T17:14:29.106Z,19.85
2022-12-06T17:16:56.934Z,12.70
2022-12-06T17:19:27.837Z,12.07
2022-12-06T17:21:54.521Z,11.40
2022-12-06T17:24:22.333Z,14.65
2022-12-06T17:26:49.436Z,17.23
2022-12-06T17:29:16.223Z,20.80
2022-12-06T17:31:43.267Z,33.85
2022-12-06T17:34:12.801Z,16.15
2022-12-06T17:36:40.240Z,18.27
2022-12-06T17:39:11.032Z,20.75
2022-12-06T17:41:56.281Z,17.45
2022-12-06T17:44:23.038Z,22.98
2022-12-06T17:46:49.629Z,20.35
2022-12-06T17:49:19.344Z,23.27
2022-12-06T17:51:46.514Z,27.42
2022-12-06T17:54:13.920Z,26.52
2022-12-06T17:56:43.005Z,28.25
2022-12-06T17:59:15.920Z,28.02
2022-12-06T18:02:13.483Z,30.02
2022-12-06T18:04:31.040Z,31.58
2022-12-06T18:06:58.673Z,38.50
2022-12-06T18:09:25.501Z,42.88
2022-12-06T18:11:52.141Z,35.50
2022-12-06T18:14:18.995Z,32.42
2022-12-06T18:16:48.082Z,37.40
2022-12-06T18:19:18.492Z,44.58
2022-12-06T18:21:45.930Z,30.05
2022-12-06T18:24:24.560Z,35.33
2022-12-06T18:26:53.484Z,31.90
2022-12-06T18:29:23.088Z,29.55
2022-12-06T18:31:50.685Z,28.92
2022-12-06T18:34:18.078Z,29.85
2022-12-06T18:36:44.793Z,26.75
2022-12-06T18:39:15.677Z,22.90
2022-12-06T18:41:46.091Z,29.33
2022-12-06T18:44:13.681Z,27.67
2022-12-06T18:46:42.339Z,25.80
2022-12-06T18:49:11.202Z,27.90
2022-12-06T18:51:38.766Z,22.38
2022-12-06T18:54:06.207Z,34.83
2022-12-06T18:56:33.884Z,35.70
2022-12-06T18:59:02.540Z,25.50
2022-12-06T19:01:35.098Z,34.50
2022-12-06T19:04:03.510Z,31.23
2022-12-06T19:06:33.340Z,21.83
2022-12-06T19:09:02.762Z,24.90
2022-12-06T19:11:29.313Z,19.23
2022-12-06T19:13:58.008Z,22.23
2022-12-06T19:16:29.068Z,20.13
2022-12-06T19:18:58.036Z,20.92
2022-12-06T19:21:25.873Z,20.23
2022-12-06T19:23:54.586Z,20.90
2022-12-06T19:26:21.335Z,23.02
2022-12-06T19:28:48.272Z,22.85
2022-12-06T19:31:15.403Z,25.85
2022-12-06T19:33:44.370Z,23.10
2022-12-06T19:36:17.172Z,24.20
2022-12-06T19:38:44.423Z,27.05
2022-12-06T19:41:16.961Z,20.83
2022-12-06T19:44:02.218Z,18.70
2022-12-06T19:46:30.419Z,18.55
2022-12-06T19:48:59.409Z,21.33
2022-12-06T19:51:28.166Z,18.35
2022-12-06T19:53:57.849Z,23.55
2022-12-06T19:56:25.479Z,22.10
2022-12-06T19:58:52.206Z,26.00
2022-12-06T20:01:29.932Z,24.92
2022-12-06T20:03:56.745Z,17.02
2022-12-06T20:06:27.158Z,18.27
2022-12-06T20:08:58.319Z,19.33
2022-12-06T20:14:16.530Z,25.60
2022-12-06T20:16:43.494Z,21.50
2022-12-06T20:19:17.341Z,24.38
2022-12-06T20:21:44.880Z,23.98
2022-12-06T20:24:13.832Z,22.38
2022-12-06T20:26:40.628Z,22.10
2022-12-06T20:29:07.983Z,28.23
2022-12-06T20:31:35.799Z,56.05
2022-12-06T20:34:07.928Z,34.05
2022-12-06T20:36:36.805Z,36.53
2022-12-06T20:39:03.843Z,38.38
2022-12-06T20:41:33.156Z,34.05
2022-12-06T20:44:01.526Z,32.10
2022-12-06T20:46:30.629Z,33.65
2022-12-06T20:49:02.549Z,23.88
2022-12-06T20:51:30.354Z,27.73
2022-12-06T20:53:59.055Z,26.92
2022-12-06T20:56:31.755Z,29.50
2022-12-06T20:59:00.326Z,21.75
2022-12-06T21:01:29.957Z,26.27
2022-12-06T21:03:57.161Z,25.17
2022-12-06T21:06:25.082Z,24.50
2022-12-06T21:08:52.473Z,21.30
2022-12-06T21:11:23.320Z,25.67
2022-12-06T21:13:55.600Z,22.73
2022-12-06T21:16:26.274Z,22.85
2022-12-06T21:18:59.546Z,17.23
2022-12-06T21:21:29.315Z,20.23
2022-12-06T21:23:59.560Z,17.48
2022-12-06T21:26:26.677Z,20.48
2022-12-06T21:28:54.538Z,18.55
2022-12-06T21:31:26.382Z,17.85
2022-12-06T21:33:53.100Z,20.15
2022-12-06T21:36:19.718Z,18.73
2022-12-06T21:38:46.239Z,15.13
2022-12-06T21:41:13.863Z,26.73
2022-12-06T21:43:40.528Z,19.45
2022-12-06T21:46:10.329Z,19.45
2022-12-06T21:48:36.993Z,19.85
2022-12-06T21:51:06.450Z,26.30
2022-12-06T21:53:33.426Z,25.23
2022-12-06T21:56:04.572Z,23.15
2022-12-06T22:01:03.987Z,24.88
2022-12-06T22:03:30.537Z,30.98
2022-12-06T22:05:57.145Z,32.73
2022-12-06T22:08:23.728Z,29.20
2022-12-06T22:10:52.593Z,28.45
2022-12-06T22:13:19.363Z,31.47
2022-12-06T22:15:46.069Z,29.02
2022-12-06T22:18:12.658Z,22.23
2022-12-06T22:20:39.206Z,20.33
2022-12-06T22:23:05.731Z,17.48
2022-12-06T22:25:32.269Z,21.65
2022-12-06T22:27:58.888Z,19.92
2022-12-06T22:30:25.398Z,19.90
2022-12-06T22:32:52.003Z,26.77
2022-12-06T22:35:18.584Z,22.83
2022-12-06T22:37:45.145Z,19.17
2022-12-06T22:40:11.975Z,31.23
2022-12-06T22:42:38.829Z,35.40
2022-12-06T22:45:06.060Z,29.13
2022-12-06T22:47:32.625Z,29.23
2022-12-06T22:49:59.482Z,22.50
2022-12-06T22:52:26.231Z,24.65
2022-12-06T22:54:52.767Z,25.13
2022-12-06T22:57:19.423Z,20.43
2022-12-06T22:59:46.216Z,15.33
2022-12-06T23:02:12.813Z,17.77
2022-12-06T23:04:39.435Z,15.73
2022-12-06T23:07:05.977Z,14.13
2022-12-06T23:09:32.584Z,12.43
2022-12-06T23:11:59.143Z,13.60
2022-12-06T23:14:25.676Z,12.87
2022-12-06T23:16:52.241Z,21.67
2022-12-06T23:19:18.869Z,16.67
2022-12-06T23:21:46.713Z,20.40
2022-12-06T23:24:14.211Z,16.83
2022-12-06T23:26:44.047Z,17.33
2022-12-06T23:29:11.220Z,13.68
2022-12-06T23:31:41.022Z,12.82
2022-12-06T23:34:20.566Z,12.18
2022-12-06T23:36:47.291Z,15.27
2022-12-06T23:39:14.162Z,13.50
2022-12-06T23:41:40.891Z,16.57
2022-12-06T23:44:07.931Z,13.10
2022-12-06T23:46:36.871Z,12.10
2022-12-06T23:49:05.096Z,15.90
2022-12-06T23:51:36.773Z,14.00
2022-12-06T23:54:05.737Z,13.95
2022-12-06T23:56:38.458Z,31.13
2022-12-06T23:59:06.907Z,29.70
